sensor_id;sensor_type;location;lat;lon;timestamp;P1;durP1;ratioP1;P2;durP2;ratioP2
76292;SDS011;67256;51.154;4.164;2023-03-14T00:01:22;4.28;;;1.55;;
76292;SDS011;67256;51.154;4.164;2023-03-14T00:03:48;6.72;;;1.50;;
76292;SDS011;67256;51.154;4.164;2023-03-14T00:06:15;8.10;;;1.63;;
76292;SDS011;67256;51.154;4.164;2023-03-14T00:08:42;7.32;;;1.73;;
76292;SDS011;67256;51.154;4.164;2023-03-14T00:11:10;10.52;;;1.92;;
76292;SDS011;67256;51.154;4.164;2023-03-14T00:13:37;7.93;;;1.63;;
76292;SDS011;67256;51.154;4.164;2023-03-14T00:16:11;6.47;;;1.88;;
76292;SDS011;67256;51.154;4.164;2023-03-14T00:18:38;6.22;;;2.15;;
76292;SDS011;67256;51.154;4.164;2023-03-14T00:21:04;8.55;;;1.77;;
76292;SDS011;67256;51.154;4.164;2023-03-14T00:23:32;6.78;;;1.90;;
76292;SDS011;67256;51.154;4.164;2023-03-14T00:26:00;4.85;;;1.40;;
76292;SDS011;67256;51.154;4.164;2023-03-14T00:28:31;7.53;;;1.83;;
76292;SDS011;67256;51.154;4.164;2023-03-14T00:30:57;6.57;;;1.10;;
76292;SDS011;67256;51.154;4.164;2023-03-14T00:33:22;5.90;;;1.63;;
76292;SDS011;67256;51.154;4.164;2023-03-14T00:35:54;7.90;;;2.58;;
76292;SDS011;67256;51.154;4.164;2023-03-14T00:38:26;7.57;;;1.75;;
76292;SDS011;67256;51.154;4.164;2023-03-14T00:40:52;6.65;;;1.60;;
76292;SDS011;67256;51.154;4.164;2023-03-14T00:43:19;5.60;;;1.73;;
76292;SDS011;67256;51.154;4.164;2023-03-14T00:45:47;7.93;;;2.17;;
76292;SDS011;67256;51.154;4.164;2023-03-14T00:48:13;4.18;;;1.63;;
76292;SDS011;67256;51.154;4.164;2023-03-14T00:50:39;11.52;;;2.28;;
76292;SDS011;67256;51.154;4.164;2023-03-14T00:53:04;10.80;;;2.45;;
76292;SDS011;67256;51.154;4.164;2023-03-14T00:55:30;10.10;;;2.00;;
76292;SDS011;67256;51.154;4.164;2023-03-14T00:57:57;8.32;;;1.60;;
76292;SDS011;67256;51.154;4.164;2023-03-14T01:00:22;14.15;;;2.00;;
76292;SDS011;67256;51.154;4.164;2023-03-14T01:02:48;8.48;;;2.03;;
76292;SDS011;67256;51.154;4.164;2023-03-14T01:05:14;8.73;;;2.40;;
76292;SDS011;67256;51.154;4.164;2023-03-14T01:07:40;13.07;;;2.13;;
76292;SDS011;67256;51.154;4.164;2023-03-14T01:10:06;13.77;;;2.67;;
76292;SDS011;67256;51.154;4.164;2023-03-14T01:12:32;7.97;;;2.25;;
76292;SDS011;67256;51.154;4.164;2023-03-14T01:14:58;10.02;;;2.65;;
76292;SDS011;67256;51.154;4.164;2023-03-14T01:17:23;17.10;;;3.58;;
76292;SDS011;67256;51.154;4.164;2023-03-14T01:19:49;18.25;;;3.15;;
76292;SDS011;67256;51.154;4.164;2023-03-14T01:22:15;9.65;;;2.53;;
76292;SDS011;67256;51.154;4.164;2023-03-14T01:24:41;11.07;;;2.17;;
76292;SDS011;67256;51.154;4.164;2023-03-14T01:27:06;12.93;;;2.53;;
76292;SDS011;67256;51.154;4.164;2023-03-14T01:29:32;9.38;;;2.05;;
76292;SDS011;67256;51.154;4.164;2023-03-14T01:31:58;8.57;;;2.13;;
76292;SDS011;67256;51.154;4.164;2023-03-14T01:34:24;12.00;;;2.10;;
76292;SDS011;67256;51.154;4.164;2023-03-14T01:36:50;10.57;;;2.45;;
76292;SDS011;67256;51.154;4.164;2023-03-14T01:39:16;12.95;;;2.30;;
76292;SDS011;67256;51.154;4.164;2023-03-14T01:41:41;7.95;;;2.10;;
76292;SDS011;67256;51.154;4.164;2023-03-14T01:44:10;6.93;;;1.90;;
76292;SDS011;67256;51.154;4.164;2023-03-14T01:46:39;9.02;;;2.53;;
76292;SDS011;67256;51.154;4.164;2023-03-14T01:57:10;9.60;;;2.13;;
76292;SDS011;67256;51.154;4.164;2023-03-14T01:59:37;8.27;;;2.00;;
76292;SDS011;67256;51.154;4.164;2023-03-14T02:02:05;9.95;;;2.78;;
76292;SDS011;67256;51.154;4.164;2023-03-14T02:04:35;7.00;;;1.90;;
76292;SDS011;67256;51.154;4.164;2023-03-14T02:09:45;10.18;;;2.08;;
76292;SDS011;67256;51.154;4.164;2023-03-14T02:12:12;8.80;;;1.60;;
76292;SDS011;67256;51.154;4.164;2023-03-14T02:14:40;12.50;;;3.35;;
76292;SDS011;67256;51.154;4.164;2023-03-14T02:17:12;7.63;;;1.52;;
76292;SDS011;67256;51.154;4.164;2023-03-14T02:22:49;8.18;;;1.98;;
76292;SDS011;67256;51.154;4.164;2023-03-14T02:27:53;7.55;;;1.60;;
76292;SDS011;67256;51.154;4.164;2023-03-14T02:30:20;7.15;;;1.33;;
76292;SDS011;67256;51.154;4.164;2023-03-14T02:32:53;6.68;;;1.55;;
76292;SDS011;67256;51.154;4.164;2023-03-14T02:35:23;10.18;;;1.73;;
76292;SDS011;67256;51.154;4.164;2023-03-14T02:37:53;7.38;;;1.27;;
76292;SDS011;67256;51.154;4.164;2023-03-14T02:40:22;4.60;;;1.50;;
76292;SDS011;67256;51.154;4.164;2023-03-14T02:42:48;7.80;;;1.15;;
76292;SDS011;67256;51.154;4.164;2023-03-14T02:47:42;9.10;;;1.40;;
76292;SDS011;67256;51.154;4.164;2023-03-14T02:50:12;4.97;;;1.50;;
76292;SDS011;67256;51.154;4.164;2023-03-14T02:52:40;5.63;;;1.52;;
76292;SDS011;67256;51.154;4.164;2023-03-14T02:55:07;7.18;;;1.65;;
76292;SDS011;67256;51.154;4.164;2023-03-14T02:57:34;9.02;;;2.05;;
76292;SDS011;67256;51.154;4.164;2023-03-14T03:00:00;5.10;;;1.50;;
76292;SDS011;67256;51.154;4.164;2023-03-14T03:02:27;9.73;;;1.90;;
76292;SDS011;67256;51.154;4.164;2023-03-14T03:04:52;6.80;;;1.60;;
76292;SDS011;67256;51.154;4.164;2023-03-14T03:07:18;4.93;;;1.42;;
76292;SDS011;67256;51.154;4.164;2023-03-14T03:09:44;6.07;;;1.67;;
76292;SDS011;67256;51.154;4.164;2023-03-14T03:12:10;5.22;;;1.27;;
76292;SDS011;67256;51.154;4.164;2023-03-14T03:14:36;2.95;;;1.05;;
76292;SDS011;67256;51.154;4.164;2023-03-14T03:17:02;7.57;;;1.45;;
76292;SDS011;67256;51.154;4.164;2023-03-14T03:19:30;5.57;;;1.42;;
76292;SDS011;67256;51.154;4.164;2023-03-14T03:21:56;8.40;;;1.48;;
76292;SDS011;67256;51.154;4.164;2023-03-14T03:24:22;8.73;;;1.73;;
76292;SDS011;67256;51.154;4.164;2023-03-14T03:26:49;8.63;;;2.28;;
76292;SDS011;67256;51.154;4.164;2023-03-14T03:29:14;7.45;;;1.67;;
76292;SDS011;67256;51.154;4.164;2023-03-14T03:31:40;5.60;;;1.67;;
76292;SDS011;67256;51.154;4.164;2023-03-14T03:34:06;7.18;;;1.70;;
76292;SDS011;67256;51.154;4.164;2023-03-14T03:36:32;6.97;;;1.85;;
76292;SDS011;67256;51.154;4.164;2023-03-14T03:38:58;6.03;;;1.70;;
76292;SDS011;67256;51.154;4.164;2023-03-14T03:41:24;12.15;;;2.53;;
76292;SDS011;67256;51.154;4.164;2023-03-14T03:43:50;10.13;;;2.38;;
76292;SDS011;67256;51.154;4.164;2023-03-14T03:46:15;8.13;;;2.58;;
76292;SDS011;67256;51.154;4.164;2023-03-14T03:48:41;9.50;;;1.90;;
76292;SDS011;67256;51.154;4.164;2023-03-14T03:51:07;9.23;;;2.55;;
76292;SDS011;67256;51.154;4.164;2023-03-14T03:53:35;8.35;;;2.90;;
76292;SDS011;67256;51.154;4.164;2023-03-14T03:56:01;10.68;;;2.38;;
76292;SDS011;67256;51.154;4.164;2023-03-14T03:58:27;8.57;;;3.03;;
76292;SDS011;67256;51.154;4.164;2023-03-14T04:00:52;8.45;;;2.75;;
76292;SDS011;67256;51.154;4.164;2023-03-14T04:03:19;7.93;;;2.50;;
76292;SDS011;67256;51.154;4.164;2023-03-14T04:05:45;9.15;;;3.10;;
76292;SDS011;67256;51.154;4.164;2023-03-14T04:08:10;9.30;;;3.67;;
76292;SDS011;67256;51.154;4.164;2023-03-14T04:10:36;9.48;;;2.95;;
76292;SDS011;67256;51.154;4.164;2023-03-14T04:13:02;9.43;;;2.92;;
76292;SDS011;67256;51.154;4.164;2023-03-14T04:15:27;10.65;;;2.95;;
76292;SDS011;67256;51.154;4.164;2023-03-14T04:17:57;8.70;;;2.67;;
76292;SDS011;67256;51.154;4.164;2023-03-14T04:20:23;10.50;;;3.45;;
76292;SDS011;67256;51.154;4.164;2023-03-14T04:22:49;7.68;;;2.90;;
76292;SDS011;67256;51.154;4.164;2023-03-14T04:25:15;5.97;;;2.92;;
76292;SDS011;67256;51.154;4.164;2023-03-14T04:27:42;7.10;;;3.20;;
76292;SDS011;67256;51.154;4.164;2023-03-14T04:30:08;9.23;;;4.00;;
76292;SDS011;67256;51.154;4.164;2023-03-14T04:32:34;12.20;;;3.85;;
76292;SDS011;67256;51.154;4.164;2023-03-14T04:34:59;9.88;;;3.38;;
76292;SDS011;67256;51.154;4.164;2023-03-14T04:37:25;9.38;;;3.63;;
76292;SDS011;67256;51.154;4.164;2023-03-14T04:39:51;9.80;;;3.70;;
76292;SDS011;67256;51.154;4.164;2023-03-14T04:42:16;10.10;;;3.45;;
76292;SDS011;67256;51.154;4.164;2023-03-14T04:44:42;10.43;;;3.42;;
76292;SDS011;67256;51.154;4.164;2023-03-14T04:47:08;10.68;;;4.55;;
76292;SDS011;67256;51.154;4.164;2023-03-14T04:49:34;10.05;;;4.20;;
76292;SDS011;67256;51.154;4.164;2023-03-14T04:51:59;9.10;;;3.33;;
76292;SDS011;67256;51.154;4.164;2023-03-14T04:54:25;12.13;;;3.92;;
76292;SDS011;67256;51.154;4.164;2023-03-14T04:56:51;10.90;;;3.95;;
76292;SDS011;67256;51.154;4.164;2023-03-14T04:59:17;8.60;;;3.67;;
76292;SDS011;67256;51.154;4.164;2023-03-14T05:01:43;7.25;;;3.60;;
76292;SDS011;67256;51.154;4.164;2023-03-14T05:04:08;11.93;;;4.53;;
76292;SDS011;67256;51.154;4.164;2023-03-14T05:06:34;10.63;;;4.25;;
76292;SDS011;67256;51.154;4.164;2023-03-14T05:09:00;8.00;;;3.63;;
76292;SDS011;67256;51.154;4.164;2023-03-14T05:11:25;7.13;;;3.50;;
76292;SDS011;67256;51.154;4.164;2023-03-14T05:13:51;10.40;;;3.92;;
76292;SDS011;67256;51.154;4.164;2023-03-14T05:16:17;10.10;;;4.15;;
76292;SDS011;67256;51.154;4.164;2023-03-14T05:18:43;6.88;;;3.38;;
76292;SDS011;67256;51.154;4.164;2023-03-14T05:21:08;6.60;;;2.97;;
76292;SDS011;67256;51.154;4.164;2023-03-14T05:23:34;8.45;;;2.95;;
76292;SDS011;67256;51.154;4.164;2023-03-14T05:26:00;6.85;;;2.25;;
76292;SDS011;67256;51.154;4.164;2023-03-14T05:28:25;5.88;;;2.20;;
76292;SDS011;67256;51.154;4.164;2023-03-14T05:30:51;5.30;;;2.20;;
76292;SDS011;67256;51.154;4.164;2023-03-14T05:33:17;7.03;;;2.28;;
76292;SDS011;67256;51.154;4.164;2023-03-14T05:35:43;5.03;;;2.17;;
76292;SDS011;67256;51.154;4.164;2023-03-14T05:38:09;4.57;;;1.80;;
76292;SDS011;67256;51.154;4.164;2023-03-14T05:40:35;4.05;;;1.65;;
76292;SDS011;67256;51.154;4.164;2023-03-14T05:43:01;8.23;;;2.00;;
76292;SDS011;67256;51.154;4.164;2023-03-14T05:45:26;3.97;;;1.90;;
76292;SDS011;67256;51.154;4.164;2023-03-14T05:47:52;5.82;;;1.98;;
76292;SDS011;67256;51.154;4.164;2023-03-14T05:50:18;9.20;;;2.42;;
76292;SDS011;67256;51.154;4.164;2023-03-14T05:52:43;5.68;;;1.98;;
76292;SDS011;67256;51.154;4.164;2023-03-14T05:55:09;4.32;;;1.80;;
76292;SDS011;67256;51.154;4.164;2023-03-14T05:57:35;4.90;;;2.13;;
76292;SDS011;67256;51.154;4.164;2023-03-14T06:00:00;4.75;;;1.73;;
76292;SDS011;67256;51.154;4.164;2023-03-14T06:02:26;4.63;;;2.47;;
76292;SDS011;67256;51.154;4.164;2023-03-14T06:04:52;3.42;;;1.70;;
76292;SDS011;67256;51.154;4.164;2023-03-14T06:07:18;8.23;;;3.05;;
76292;SDS011;67256;51.154;4.164;2023-03-14T06:09:43;6.35;;;1.92;;
76292;SDS011;67256;51.154;4.164;2023-03-14T06:12:09;9.32;;;2.55;;
76292;SDS011;67256;51.154;4.164;2023-03-14T06:14:35;6.22;;;2.78;;
76292;SDS011;67256;51.154;4.164;2023-03-14T06:17:00;7.03;;;2.67;;
76292;SDS011;67256;51.154;4.164;2023-03-14T06:19:26;3.38;;;1.27;;
76292;SDS011;67256;51.154;4.164;2023-03-14T06:21:52;5.10;;;1.20;;
76292;SDS011;67256;51.154;4.164;2023-03-14T06:24:17;3.65;;;1.15;;
76292;SDS011;67256;51.154;4.164;2023-03-14T06:26:43;4.32;;;0.93;;
76292;SDS011;67256;51.154;4.164;2023-03-14T06:29:09;12.50;;;0.80;;
76292;SDS011;67256;51.154;4.164;2023-03-14T06:31:35;4.32;;;1.23;;
76292;SDS011;67256;51.154;4.164;2023-03-14T06:34:01;4.45;;;1.25;;
76292;SDS011;67256;51.154;4.164;2023-03-14T06:36:27;5.00;;;1.40;;
76292;SDS011;67256;51.154;4.164;2023-03-14T06:38:52;3.08;;;0.80;;
76292;SDS011;67256;51.154;4.164;2023-03-14T06:41:18;9.27;;;1.38;;
76292;SDS011;67256;51.154;4.164;2023-03-14T06:43:44;6.85;;;1.48;;
76292;SDS011;67256;51.154;4.164;2023-03-14T06:46:09;9.27;;;2.33;;
76292;SDS011;67256;51.154;4.164;2023-03-14T06:48:35;7.03;;;1.98;;
76292;SDS011;67256;51.154;4.164;2023-03-14T06:51:01;7.43;;;1.55;;
76292;SDS011;67256;51.154;4.164;2023-03-14T06:53:26;9.68;;;1.65;;
76292;SDS011;67256;51.154;4.164;2023-03-14T06:55:52;5.15;;;1.52;;
76292;SDS011;67256;51.154;4.164;2023-03-14T06:58:18;4.07;;;1.65;;
76292;SDS011;67256;51.154;4.164;2023-03-14T07:00:44;6.28;;;2.63;;
76292;SDS011;67256;51.154;4.164;2023-03-14T07:03:09;7.40;;;1.75;;
76292;SDS011;67256;51.154;4.164;2023-03-14T07:05:35;7.93;;;1.90;;
76292;SDS011;67256;51.154;4.164;2023-03-14T07:08:01;5.18;;;1.70;;
76292;SDS011;67256;51.154;4.164;2023-03-14T07:10:27;10.43;;;2.15;;
76292;SDS011;67256;51.154;4.164;2023-03-14T07:12:52;4.05;;;1.30;;
76292;SDS011;67256;51.154;4.164;2023-03-14T07:15:19;8.68;;;2.50;;
76292;SDS011;67256;51.154;4.164;2023-03-14T07:17:45;11.77;;;1.30;;
76292;SDS011;67256;51.154;4.164;2023-03-14T07:20:13;8.35;;;1.83;;
76292;SDS011;67256;51.154;4.164;2023-03-14T07:22:38;5.85;;;2.15;;
76292;SDS011;67256;51.154;4.164;2023-03-14T07:25:05;10.27;;;2.72;;
76292;SDS011;67256;51.154;4.164;2023-03-14T07:27:31;5.88;;;1.75;;
76292;SDS011;67256;51.154;4.164;2023-03-14T07:29:56;10.25;;;2.40;;
76292;SDS011;67256;51.154;4.164;2023-03-14T07:32:22;7.07;;;1.38;;
76292;SDS011;67256;51.154;4.164;2023-03-14T07:34:48;6.45;;;1.92;;
76292;SDS011;67256;51.154;4.164;2023-03-14T07:37:13;7.88;;;2.17;;
76292;SDS011;67256;51.154;4.164;2023-03-14T07:39:39;9.70;;;1.90;;
76292;SDS011;67256;51.154;4.164;2023-03-14T07:42:05;4.70;;;1.27;;
76292;SDS011;67256;51.154;4.164;2023-03-14T07:44:31;9.43;;;3.13;;
76292;SDS011;67256;51.154;4.164;2023-03-14T07:46:57;5.95;;;1.52;;
76292;SDS011;67256;51.154;4.164;2023-03-14T07:49:22;6.03;;;1.65;;
76292;SDS011;67256;51.154;4.164;2023-03-14T07:51:48;6.43;;;1.33;;
76292;SDS011;67256;51.154;4.164;2023-03-14T07:54:14;7.18;;;1.50;;
76292;SDS011;67256;51.154;4.164;2023-03-14T07:56:40;6.45;;;1.73;;
76292;SDS011;67256;51.154;4.164;2023-03-14T07:59:06;3.88;;;1.95;;
76292;SDS011;67256;51.154;4.164;2023-03-14T08:01:32;7.53;;;2.30;;
76292;SDS011;67256;51.154;4.164;2023-03-14T08:03:58;5.32;;;1.60;;
76292;SDS011;67256;51.154;4.164;2023-03-14T08:06:24;4.70;;;1.77;;
76292;SDS011;67256;51.154;4.164;2023-03-14T08:08:49;5.20;;;1.83;;
76292;SDS011;67256;51.154;4.164;2023-03-14T08:11:15;9.52;;;1.70;;
76292;SDS011;67256;51.154;4.164;2023-03-14T08:13:41;7.22;;;1.38;;
76292;SDS011;67256;51.154;4.164;2023-03-14T08:16:07;5.93;;;1.10;;
76292;SDS011;67256;51.154;4.164;2023-03-14T08:18:34;3.72;;;1.05;;
76292;SDS011;67256;51.154;4.164;2023-03-14T08:20:59;4.18;;;1.08;;
76292;SDS011;67256;51.154;4.164;2023-03-14T08:23:25;9.40;;;1.25;;
76292;SDS011;67256;51.154;4.164;2023-03-14T08:25:51;7.40;;;1.33;;
76292;SDS011;67256;51.154;4.164;2023-03-14T08:28:17;8.82;;;1.48;;
76292;SDS011;67256;51.154;4.164;2023-03-14T08:30:43;4.97;;;1.30;;
76292;SDS011;67256;51.154;4.164;2023-03-14T08:33:09;5.85;;;1.55;;
76292;SDS011;67256;51.154;4.164;2023-03-14T08:35:35;3.45;;;1.20;;
76292;SDS011;67256;51.154;4.164;2023-03-14T08:38:02;6.60;;;1.20;;
76292;SDS011;67256;51.154;4.164;2023-03-14T08:40:28;2.08;;;0.98;;
76292;SDS011;67256;51.154;4.164;2023-03-14T08:42:54;6.03;;;1.77;;
76292;SDS011;67256;51.154;4.164;2023-03-14T08:45:19;3.80;;;1.30;;
76292;SDS011;67256;51.154;4.164;2023-03-14T08:47:45;5.63;;;1.30;;
76292;SDS011;67256;51.154;4.164;2023-03-14T08:50:11;4.15;;;1.77;;
76292;SDS011;67256;51.154;4.164;2023-03-14T08:52:38;4.75;;;2.60;;
76292;SDS011;67256;51.154;4.164;2023-03-14T08:55:05;5.78;;;2.15;;
76292;SDS011;67256;51.154;4.164;2023-03-14T08:57:35;7.53;;;2.10;;
76292;SDS011;67256;51.154;4.164;2023-03-14T09:00:02;5.82;;;2.40;;
76292;SDS011;67256;51.154;4.164;2023-03-14T09:02:37;8.32;;;2.47;;
76292;SDS011;67256;51.154;4.164;2023-03-14T09:05:03;5.80;;;2.40;;
76292;SDS011;67256;51.154;4.164;2023-03-14T09:07:29;7.50;;;2.20;;
76292;SDS011;67256;51.154;4.164;2023-03-14T09:09:55;7.28;;;2.28;;
76292;SDS011;67256;51.154;4.164;2023-03-14T09:12:21;6.55;;;2.95;;
76292;SDS011;67256;51.154;4.164;2023-03-14T09:14:47;6.85;;;3.00;;
76292;SDS011;67256;51.154;4.164;2023-03-14T09:17:12;6.25;;;2.67;;
76292;SDS011;67256;51.154;4.164;2023-03-14T09:19:38;13.43;;;3.60;;
76292;SDS011;67256;51.154;4.164;2023-03-14T09:22:04;8.90;;;3.28;;
76292;SDS011;67256;51.154;4.164;2023-03-14T09:24:30;5.47;;;2.05;;
76292;SDS011;67256;51.154;4.164;2023-03-14T09:26:55;9.45;;;3.70;;
76292;SDS011;67256;51.154;4.164;2023-03-14T09:29:22;8.23;;;3.70;;
76292;SDS011;67256;51.154;4.164;2023-03-14T09:31:47;8.70;;;2.58;;
76292;SDS011;67256;51.154;4.164;2023-03-14T09:34:13;7.55;;;2.38;;
76292;SDS011;67256;51.154;4.164;2023-03-14T09:36:39;9.93;;;2.58;;
76292;SDS011;67256;51.154;4.164;2023-03-14T09:39:05;5.05;;;2.10;;
76292;SDS011;67256;51.154;4.164;2023-03-14T09:41:33;2.22;;;1.38;;
76292;SDS011;67256;51.154;4.164;2023-03-14T09:46:29;5.03;;;1.50;;
76292;SDS011;67256;51.154;4.164;2023-03-14T09:48:57;7.65;;;1.95;;
76292;SDS011;67256;51.154;4.164;2023-03-14T09:51:23;4.78;;;1.50;;
76292;SDS011;67256;51.154;4.164;2023-03-14T09:53:50;4.15;;;1.40;;
76292;SDS011;67256;51.154;4.164;2023-03-14T09:56:18;1.83;;;1.17;;
76292;SDS011;67256;51.154;4.164;2023-03-14T09:58:51;5.38;;;1.55;;
76292;SDS011;67256;51.154;4.164;2023-03-14T10:01:28;3.80;;;1.52;;
76292;SDS011;67256;51.154;4.164;2023-03-14T10:03:57;3.58;;;1.23;;
76292;SDS011;67256;51.154;4.164;2023-03-14T10:06:26;5.25;;;1.42;;
76292;SDS011;67256;51.154;4.164;2023-03-14T10:08:54;4.05;;;1.42;;
76292;SDS011;67256;51.154;4.164;2023-03-14T10:11:21;6.18;;;1.55;;
76292;SDS011;67256;51.154;4.164;2023-03-14T10:16:28;8.35;;;1.33;;
76292;SDS011;67256;51.154;4.164;2023-03-14T10:19:00;7.15;;;1.63;;
76292;SDS011;67256;51.154;4.164;2023-03-14T10:21:31;13.25;;;1.38;;
76292;SDS011;67256;51.154;4.164;2023-03-14T10:24:21;6.45;;;1.45;;
76292;SDS011;67256;51.154;4.164;2023-03-14T10:26:53;5.25;;;1.45;;
76292;SDS011;67256;51.154;4.164;2023-03-14T10:29:20;8.30;;;1.90;;
76292;SDS011;67256;51.154;4.164;2023-03-14T10:31:51;8.90;;;1.77;;
76292;SDS011;67256;51.154;4.164;2023-03-14T10:34:25;5.35;;;1.33;;
76292;SDS011;67256;51.154;4.164;2023-03-14T10:36:59;4.57;;;1.63;;
76292;SDS011;67256;51.154;4.164;2023-03-14T10:39:51;10.55;;;1.60;;
76292;SDS011;67256;51.154;4.164;2023-03-14T10:44:57;8.70;;;1.48;;
76292;SDS011;67256;51.154;4.164;2023-03-14T10:47:26;11.05;;;1.65;;
76292;SDS011;67256;51.154;4.164;2023-03-14T10:49:53;22.65;;;4.28;;
76292;SDS011;67256;51.154;4.164;2023-03-14T10:52:27;9.38;;;2.03;;
76292;SDS011;67256;51.154;4.164;2023-03-14T10:55:01;4.65;;;1.27;;
76292;SDS011;67256;51.154;4.164;2023-03-14T10:57:29;6.30;;;1.00;;
76292;SDS011;67256;51.154;4.164;2023-03-14T10:59:55;6.20;;;1.40;;
76292;SDS011;67256;51.154;4.164;2023-03-14T11:05:14;12.20;;;1.63;;
76292;SDS011;67256;51.154;4.164;2023-03-14T11:08:01;11.02;;;2.33;;
76292;SDS011;67256;51.154;4.164;2023-03-14T11:16:02;9.00;;;1.85;;
76292;SDS011;67256;51.154;4.164;2023-03-14T11:29:55;13.43;;;2.65;;
76292;SDS011;67256;51.154;4.164;2023-03-14T11:38:18;13.82;;;2.42;;
76292;SDS011;67256;51.154;4.164;2023-03-14T11:40:45;13.48;;;3.22;;
76292;SDS011;67256;51.154;4.164;2023-03-14T11:43:15;8.70;;;2.58;;
76292;SDS011;67256;51.154;4.164;2023-03-14T11:45:49;24.27;;;3.58;;
76292;SDS011;67256;51.154;4.164;2023-03-14T11:51:05;15.43;;;3.03;;
76292;SDS011;67256;51.154;4.164;2023-03-14T11:53:43;24.15;;;4.18;;
76292;SDS011;67256;51.154;4.164;2023-03-14T11:56:37;28.48;;;3.35;;
76292;SDS011;67256;51.154;4.164;2023-03-14T11:59:21;25.42;;;4.40;;
76292;SDS011;67256;51.154;4.164;2023-03-14T12:01:54;16.27;;;3.05;;
76292;SDS011;67256;51.154;4.164;2023-03-14T12:07:28;15.80;;;3.15;;
76292;SDS011;67256;51.154;4.164;2023-03-14T12:09:56;20.02;;;2.75;;
76292;SDS011;67256;51.154;4.164;2023-03-14T12:12:23;10.93;;;2.17;;
76292;SDS011;67256;51.154;4.164;2023-03-14T12:14:58;17.73;;;2.65;;
76292;SDS011;67256;51.154;4.164;2023-03-14T12:17:28;17.00;;;2.45;;
76292;SDS011;67256;51.154;4.164;2023-03-14T12:25:27;19.45;;;3.47;;
76292;SDS011;67256;51.154;4.164;2023-03-14T12:30:25;18.80;;;3.63;;
76292;SDS011;67256;51.154;4.164;2023-03-14T12:40:54;22.77;;;3.40;;
76292;SDS011;67256;51.154;4.164;2023-03-14T12:43:32;30.92;;;5.95;;
76292;SDS011;67256;51.154;4.164;2023-03-14T12:46:42;23.83;;;4.88;;
76292;SDS011;67256;51.154;4.164;2023-03-14T12:51:44;28.15;;;3.85;;
76292;SDS011;67256;51.154;4.164;2023-03-14T12:54:32;28.50;;;5.50;;
76292;SDS011;67256;51.154;4.164;2023-03-14T13:02:28;18.27;;;4.22;;
76292;SDS011;67256;51.154;4.164;2023-03-14T13:05:12;14.05;;;3.22;;
76292;SDS011;67256;51.154;4.164;2023-03-14T13:18:02;13.40;;;2.38;;
76292;SDS011;67256;51.154;4.164;2023-03-14T13:20:59;14.18;;;2.53;;
76292;SDS011;67256;51.154;4.164;2023-03-14T13:24:04;13.23;;;2.90;;
76292;SDS011;67256;51.154;4.164;2023-03-14T13:26:35;9.85;;;1.92;;
76292;SDS011;67256;51.154;4.164;2023-03-14T13:29:14;11.35;;;2.42;;
76292;SDS011;67256;51.154;4.164;2023-03-14T13:31:47;12.80;;;2.83;;
76292;SDS011;67256;51.154;4.164;2023-03-14T13:34:14;12.38;;;2.70;;
76292;SDS011;67256;51.154;4.164;2023-03-14T13:36:40;15.68;;;2.67;;
76292;SDS011;67256;51.154;4.164;2023-03-14T13:39:09;14.52;;;2.28;;
76292;SDS011;67256;51.154;4.164;2023-03-14T13:41:42;10.32;;;2.20;;
76292;SDS011;67256;51.154;4.164;2023-03-14T13:44:12;9.18;;;2.33;;
76292;SDS011;67256;51.154;4.164;2023-03-14T13:47:03;12.60;;;2.20;;
76292;SDS011;67256;51.154;4.164;2023-03-14T13:49:32;12.85;;;2.25;;
76292;SDS011;67256;51.154;4.164;2023-03-14T13:52:00;11.07;;;1.75;;
76292;SDS011;67256;51.154;4.164;2023-03-14T13:54:27;13.35;;;1.70;;
76292;SDS011;67256;51.154;4.164;2023-03-14T13:56:59;9.00;;;1.70;;
76292;SDS011;67256;51.154;4.164;2023-03-14T13:59:30;9.98;;;1.75;;
76292;SDS011;67256;51.154;4.164;2023-03-14T14:02:02;8.52;;;1.83;;
76292;SDS011;67256;51.154;4.164;2023-03-14T14:04:32;8.80;;;1.63;;
76292;SDS011;67256;51.154;4.164;2023-03-14T14:07:01;1.35;;;0.40;;
76292;SDS011;67256;51.154;4.164;2023-03-14T14:09:39;1.35;;;0.50;;
76292;SDS011;67256;51.154;4.164;2023-03-14T14:12:13;2.38;;;0.45;;
76292;SDS011;67256;51.154;4.164;2023-03-14T14:14:41;5.32;;;0.73;;
76292;SDS011;67256;51.154;4.164;2023-03-14T14:17:21;4.70;;;0.77;;
76292;SDS011;67256;51.154;4.164;2023-03-14T14:19:52;1.10;;;0.50;;
76292;SDS011;67256;51.154;4.164;2023-03-14T14:22:19;2.97;;;1.15;;
76292;SDS011;67256;51.154;4.164;2023-03-14T14:24:45;3.85;;;1.10;;
76292;SDS011;67256;51.154;4.164;2023-03-14T14:27:13;1.35;;;0.50;;
76292;SDS011;67256;51.154;4.164;2023-03-14T14:29:41;2.70;;;0.60;;
76292;SDS011;67256;51.154;4.164;2023-03-14T14:34:41;4.45;;;1.30;;
76292;SDS011;67256;51.154;4.164;2023-03-14T14:37:43;10.57;;;1.23;;
76292;SDS011;67256;51.154;4.164;2023-03-14T14:40:10;6.00;;;1.05;;
76292;SDS011;67256;51.154;4.164;2023-03-14T14:42:44;7.22;;;1.08;;
76292;SDS011;67256;51.154;4.164;2023-03-14T14:45:12;4.15;;;0.98;;
76292;SDS011;67256;51.154;4.164;2023-03-14T14:47:51;5.03;;;1.08;;
76292;SDS011;67256;51.154;4.164;2023-03-14T14:50:34;4.57;;;1.42;;
76292;SDS011;67256;51.154;4.164;2023-03-14T14:56:14;14.23;;;1.70;;
76292;SDS011;67256;51.154;4.164;2023-03-14T14:58:44;6.93;;;1.13;;
76292;SDS011;67256;51.154;4.164;2023-03-14T15:01:14;8.57;;;1.50;;
76292;SDS011;67256;51.154;4.164;2023-03-14T15:03:55;8.60;;;1.67;;
76292;SDS011;67256;51.154;4.164;2023-03-14T15:06:21;5.88;;;1.45;;
76292;SDS011;67256;51.154;4.164;2023-03-14T15:08:52;6.93;;;1.90;;
76292;SDS011;67256;51.154;4.164;2023-03-14T15:11:20;10.15;;;1.73;;
76292;SDS011;67256;51.154;4.164;2023-03-14T15:13:51;10.70;;;1.85;;
76292;SDS011;67256;51.154;4.164;2023-03-14T15:16:18;14.90;;;1.90;;
76292;SDS011;67256;51.154;4.164;2023-03-14T15:18:55;11.45;;;1.80;;
76292;SDS011;67256;51.154;4.164;2023-03-14T15:21:23;14.38;;;2.78;;
76292;SDS011;67256;51.154;4.164;2023-03-14T15:23:50;7.72;;;2.58;;
76292;SDS011;67256;51.154;4.164;2023-03-14T15:26:20;13.07;;;2.45;;
76292;SDS011;67256;51.154;4.164;2023-03-14T15:28:48;12.63;;;2.22;;
76292;SDS011;67256;51.154;4.164;2023-03-14T15:31:14;14.07;;;2.65;;
76292;SDS011;67256;51.154;4.164;2023-03-14T15:33:42;10.18;;;2.90;;
76292;SDS011;67256;51.154;4.164;2023-03-14T15:36:25;8.55;;;2.28;;
76292;SDS011;67256;51.154;4.164;2023-03-14T15:38:54;9.30;;;1.80;;
76292;SDS011;67256;51.154;4.164;2023-03-14T15:41:21;9.40;;;2.20;;
76292;SDS011;67256;51.154;4.164;2023-03-14T15:43:47;14.93;;;3.55;;
76292;SDS011;67256;51.154;4.164;2023-03-14T15:46:14;12.93;;;2.50;;
76292;SDS011;67256;51.154;4.164;2023-03-14T15:48:42;6.65;;;1.52;;
76292;SDS011;67256;51.154;4.164;2023-03-14T15:51:09;7.07;;;1.63;;
76292;SDS011;67256;51.154;4.164;2023-03-14T15:53:35;11.52;;;2.75;;
76292;SDS011;67256;51.154;4.164;2023-03-14T15:56:07;10.68;;;1.63;;
76292;SDS011;67256;51.154;4.164;2023-03-14T15:58:36;13.32;;;1.75;;
76292;SDS011;67256;51.154;4.164;2023-03-14T16:01:05;7.93;;;1.65;;
76292;SDS011;67256;51.154;4.164;2023-03-14T16:03:36;9.52;;;1.55;;
76292;SDS011;67256;51.154;4.164;2023-03-14T16:06:01;13.15;;;1.90;;
76292;SDS011;67256;51.154;4.164;2023-03-14T16:08:28;9.48;;;1.73;;
76292;SDS011;67256;51.154;4.164;2023-03-14T16:10:55;12.43;;;1.75;;
76292;SDS011;67256;51.154;4.164;2023-03-14T16:13:23;8.57;;;1.70;;
76292;SDS011;67256;51.154;4.164;2023-03-14T16:15:56;13.25;;;2.08;;
76292;SDS011;67256;51.154;4.164;2023-03-14T16:18:24;7.63;;;2.25;;
76292;SDS011;67256;51.154;4.164;2023-03-14T16:20:53;12.57;;;2.28;;
76292;SDS011;67256;51.154;4.164;2023-03-14T16:23:23;10.45;;;1.92;;
76292;SDS011;67256;51.154;4.164;2023-03-14T16:25:49;13.20;;;2.15;;
76292;SDS011;67256;51.154;4.164;2023-03-14T16:28:16;9.15;;;2.17;;